createdAt,value
2023-05-09T00:02:15.246Z,10.65
2023-05-09T00:04:48.707Z,10.20
2023-05-09T00:07:21.872Z,9.60
2023-05-09T00:09:54.763Z,10.68
2023-05-09T00:12:29.895Z,10.13
2023-05-09T00:15:02.645Z,11.40
2023-05-09T00:17:36.450Z,9.95
2023-05-09T00:20:12.441Z,11.43
2023-05-09T00:22:45.435Z,10.25
2023-05-09T00:25:18.282Z,9.98
2023-05-09T00:27:52.760Z,11.15
2023-05-09T00:30:25.798Z,11.07
2023-05-09T00:32:58.754Z,10.50
2023-05-09T00:35:32.389Z,10.13
2023-05-09T00:38:05.532Z,9.02
2023-05-09T00:40:38.501Z,9.88
2023-05-09T00:43:13.116Z,10.15
2023-05-09T00:45:46.488Z,12.45
2023-05-09T00:48:20.562Z,11.02
2023-05-09T00:50:53.844Z,12.63
2023-05-09T00:53:27.897Z,13.73
2023-05-09T00:56:01.843Z,12.90
2023-05-09T00:58:36.106Z,11.48
2023-05-09T01:01:09.288Z,12.02
2023-05-09T01:03:43.188Z,13.23
2023-05-09T01:06:24.226Z,11.48
2023-05-09T01:09:03.039Z,12.75
2023-05-09T01:11:41.310Z,12.00
2023-05-09T01:14:25.810Z,11.70
2023-05-09T01:17:10.067Z,11.93
2023-05-09T01:19:58.379Z,14.73
2023-05-09T01:22:34.934Z,10.32
2023-05-09T01:25:37.700Z,13.48
2023-05-09T01:28:36.419Z,13.50
2023-05-09T01:31:11.376Z,12.65
2023-05-09T01:33:47.878Z,12.35
2023-05-09T01:36:22.669Z,12.60
2023-05-09T01:38:57.458Z,11.68
2023-05-09T01:41:33.301Z,10.70
2023-05-09T01:44:09.627Z,12.93
2023-05-09T01:46:46.001Z,11.43
2023-05-09T01:49:21.286Z,11.25
2023-05-09T01:51:56.458Z,13.18
2023-05-09T01:54:30.735Z,11.07
2023-05-09T01:57:05.476Z,11.50
2023-05-09T01:59:42.614Z,11.30
2023-05-09T02:02:18.316Z,11.48
2023-05-09T02:04:51.737Z,11.85
2023-05-09T02:07:26.039Z,11.65
2023-05-09T02:10:04.073Z,13.68
2023-05-09T02:12:37.297Z,11.05
2023-05-09T02:15:11.315Z,11.35
2023-05-09T02:17:48.444Z,13.23
2023-05-09T02:20:21.645Z,12.98
2023-05-09T02:22:54.645Z,12.10
2023-05-09T02:25:27.623Z,12.27
2023-05-09T02:28:01.281Z,15.02
2023-05-09T02:30:40.188Z,12.27
2023-05-09T02:33:15.639Z,13.90
2023-05-09T02:35:49.170Z,16.45
2023-05-09T02:38:22.208Z,12.52
2023-05-09T02:40:55.294Z,11.70
2023-05-09T02:43:28.290Z,14.30
2023-05-09T02:46:01.487Z,16.85
2023-05-09T02:48:35.899Z,13.60
2023-05-09T02:51:09.023Z,14.05
2023-05-09T02:53:42.085Z,15.98
2023-05-09T02:56:15.235Z,16.08
2023-05-09T02:58:51.418Z,17.42
2023-05-09T03:01:25.355Z,13.70
2023-05-09T03:04:00.257Z,15.50
2023-05-09T03:06:33.985Z,16.30
2023-05-09T03:09:07.273Z,14.52
2023-05-09T03:11:41.102Z,15.73
2023-05-09T03:14:15.721Z,13.05
2023-05-09T03:16:49.031Z,14.73
2023-05-09T03:19:31.924Z,14.48
2023-05-09T03:22:05.220Z,13.07
2023-05-09T03:24:42.518Z,14.68
2023-05-09T03:27:15.904Z,13.93
2023-05-09T03:29:51.856Z,15.30
2023-05-09T03:32:26.806Z,15.82
2023-05-09T03:35:01.191Z,18.48
2023-05-09T03:37:34.361Z,16.40
2023-05-09T03:40:09.358Z,15.18
2023-05-09T03:42:50.105Z,14.52
2023-05-09T03:45:23.403Z,13.40
2023-05-09T03:47:57.344Z,14.20
2023-05-09T03:50:32.139Z,17.88
2023-05-09T03:53:05.815Z,18.98
2023-05-09T03:55:42.386Z,17.42
2023-05-09T03:58:19.440Z,17.27
2023-05-09T04:00:53.752Z,15.80
2023-05-09T04:03:29.869Z,19.95
2023-05-09T04:06:04.935Z,18.92
2023-05-09T04:08:44.122Z,19.52
2023-05-09T04:11:17.210Z,16.55
2023-05-09T04:13:53.613Z,16.30
2023-05-09T04:16:34.495Z,16.77
2023-05-09T04:19:07.772Z,19.02
2023-05-09T04:21:43.047Z,16.58
2023-05-09T04:24:16.003Z,16.65
2023-05-09T04:26:51.716Z,16.48
2023-05-09T04:29:27.938Z,24.15
2023-05-09T04:32:02.277Z,21.63
2023-05-09T04:34:35.607Z,16.25
2023-05-09T04:37:16.214Z,14.32
2023-05-09T04:39:49.608Z,18.23
2023-05-09T04:42:28.636Z,21.25
2023-05-09T04:45:03.858Z,17.25
2023-05-09T04:47:36.839Z,19.23
2023-05-09T04:50:10.959Z,17.02
2023-05-09T04:52:45.280Z,18.55
2023-05-09T04:55:18.682Z,17.65
2023-05-09T04:57:54.232Z,18.83
2023-05-09T05:00:27.734Z,17.55
2023-05-09T05:03:01.381Z,15.82
2023-05-09T05:05:37.503Z,16.60
2023-05-09T05:08:13.316Z,16.45
2023-05-09T05:10:49.061Z,14.80
2023-05-09T05:13:24.390Z,14.68
2023-05-09T05:16:02.160Z,14.43
2023-05-09T05:18:35.591Z,15.02
2023-05-09T05:21:09.133Z,14.50
2023-05-09T05:23:44.308Z,12.15
2023-05-09T05:26:17.358Z,14.38
2023-05-09T05:28:55.426Z,13.98
2023-05-09T05:31:28.684Z,13.00
2023-05-09T05:34:01.598Z,12.10
2023-05-09T05:36:37.037Z,11.10
2023-05-09T05:39:12.446Z,11.32
2023-05-09T05:41:45.555Z,10.85
2023-05-09T05:44:18.536Z,10.45
2023-05-09T05:46:52.055Z,11.23
2023-05-09T05:49:26.063Z,13.07
2023-05-09T05:51:59.003Z,10.82
2023-05-09T05:54:34.066Z,9.35
2023-05-09T05:57:08.219Z,11.73
2023-05-09T05:59:41.977Z,9.88
2023-05-09T06:02:15.847Z,11.15
2023-05-09T06:04:49.164Z,9.75
2023-05-09T06:07:22.350Z,10.75
2023-05-09T06:09:56.620Z,10.05
2023-05-09T06:12:29.541Z,9.95
2023-05-09T06:15:05.001Z,8.27
2023-05-09T06:17:41.449Z,10.65
2023-05-09T06:20:14.280Z,11.20
2023-05-09T06:22:47.235Z,8.35
2023-05-09T06:25:22.167Z,12.10
2023-05-09T06:27:55.196Z,9.50
2023-05-09T06:30:28.122Z,10.07
2023-05-09T06:33:01.139Z,10.95
2023-05-09T06:35:34.217Z,9.05
2023-05-09T06:38:07.124Z,6.78
2023-05-09T06:40:41.919Z,12.38
2023-05-09T06:43:14.965Z,7.65
2023-05-09T06:45:47.894Z,8.07
2023-05-09T06:48:20.819Z,12.38
2023-05-09T06:50:53.730Z,9.45
2023-05-09T06:53:26.559Z,11.48
2023-05-09T06:56:00.861Z,10.73
2023-05-09T06:58:33.805Z,10.65
2023-05-09T07:01:06.768Z,9.35
2023-05-09T07:03:39.594Z,6.75
2023-05-09T07:06:12.419Z,8.27
2023-05-09T07:08:45.984Z,7.80
2023-05-09T07:11:21.389Z,9.15
2023-05-09T07:13:54.378Z,8.50
2023-05-09T07:16:29.667Z,8.48
2023-05-09T07:19:02.723Z,10.90
2023-05-09T07:21:35.626Z,6.70
2023-05-09T07:24:08.699Z,10.63
2023-05-09T07:26:42.897Z,8.73
2023-05-09T07:29:15.813Z,7.88
2023-05-09T07:31:48.702Z,8.18
2023-05-09T07:34:21.636Z,6.15
2023-05-09T07:37:16.352Z,6.53
2023-05-09T07:42:51.625Z,10.93
2023-05-09T07:45:24.510Z,8.40
2023-05-09T07:47:57.360Z,6.97
2023-05-09T07:50:30.368Z,6.40
2023-05-09T07:53:03.337Z,6.55
2023-05-09T07:55:36.452Z,7.40
2023-05-09T07:58:10.696Z,9.38
2023-05-09T08:00:43.782Z,6.70
2023-05-09T08:03:16.829Z,8.00
2023-05-09T08:05:49.933Z,9.02
2023-05-09T08:08:22.923Z,8.38
2023-05-09T08:10:56.327Z,6.57
2023-05-09T08:13:30.593Z,7.82
2023-05-09T08:16:03.842Z,7.95
2023-05-09T08:18:36.802Z,7.10
2023-05-09T08:21:09.799Z,7.57
2023-05-09T08:23:42.835Z,5.65
2023-05-09T08:26:16.018Z,7.68
2023-05-09T08:28:50.445Z,5.95
2023-05-09T08:31:23.378Z,7.38
2023-05-09T08:33:56.279Z,5.60
2023-05-09T08:36:29.097Z,6.57
2023-05-09T08:39:02.280Z,4.50
2023-05-09T08:41:36.151Z,4.05
2023-05-09T08:44:10.984Z,6.60
2023-05-09T08:46:45.732Z,4.90
2023-05-09T08:49:18.990Z,8.82
2023-05-09T08:51:52.444Z,5.75
2023-05-09T08:54:26.012Z,5.10
2023-05-09T08:56:59.115Z,6.75
2023-05-09T08:59:36.892Z,5.50
2023-05-09T09:02:14.568Z,4.65
2023-05-09T09:04:47.996Z,5.65
2023-05-09T09:07:21.695Z,7.55
2023-05-09T09:09:56.750Z,5.32
2023-05-09T09:12:29.981Z,4.20
2023-05-09T09:15:06.144Z,4.55
2023-05-09T09:17:43.479Z,3.92
2023-05-09T09:20:19.386Z,6.97
2023-05-09T09:22:56.358Z,4.20
2023-05-09T09:25:29.187Z,7.60
2023-05-09T09:28:02.237Z,4.28
2023-05-09T09:30:36.731Z,3.08
2023-05-09T09:33:09.749Z,3.97
2023-05-09T09:35:43.498Z,4.93
2023-05-09T09:38:16.452Z,6.38
2023-05-09T09:40:56.159Z,4.60
2023-05-09T09:43:30.281Z,5.40
2023-05-09T09:46:05.539Z,4.75
2023-05-09T09:48:39.678Z,3.53
2023-05-09T09:51:12.746Z,4.93
2023-05-09T09:53:46.866Z,5.30
2023-05-09T09:56:21.711Z,6.30
2023-05-09T09:59:09.666Z,4.35
2023-05-09T10:01:56.900Z,5.60
2023-05-09T10:04:31.916Z,5.80
2023-05-09T10:07:06.386Z,4.65
2023-05-09T10:09:39.241Z,4.35
2023-05-09T10:12:14.927Z,4.03
2023-05-09T10:14:49.768Z,3.15
2023-05-09T10:17:26.134Z,9.43
2023-05-09T10:20:03.836Z,4.10
2023-05-09T10:22:40.427Z,4.70
2023-05-09T10:25:18.622Z,3.80
2023-05-09T10:27:57.281Z,2.85
2023-05-09T10:30:34.246Z,2.60
2023-05-09T10:33:11.568Z,4.47
2023-05-09T10:35:48.030Z,3.78
2023-05-09T10:38:21.269Z,6.57
2023-05-09T10:40:56.076Z,4.68
2023-05-09T10:43:31.179Z,2.90
2023-05-09T10:46:06.455Z,2.65
2023-05-09T10:48:42.369Z,4.28
2023-05-09T10:51:15.249Z,3.25
2023-05-09T10:53:50.189Z,3.42
2023-05-09T10:56:27.500Z,4.25
2023-05-09T10:59:00.666Z,4.10
2023-05-09T11:01:37.423Z,3.10
2023-05-09T11:04:14.554Z,2.92
2023-05-09T11:06:51.004Z,3.95
2023-05-09T11:09:27.169Z,3.00
2023-05-09T11:12:08.179Z,2.55
2023-05-09T11:14:43.473Z,3.30
2023-05-09T11:17:29.699Z,9.77
2023-05-09T11:20:07.006Z,2.85
2023-05-09T11:22:42.036Z,2.38
2023-05-09T11:25:17.102Z,3.97
2023-05-09T11:27:52.118Z,2.55
2023-05-09T11:30:37.638Z,2.45
2023-05-09T11:33:24.009Z,3.42
2023-05-09T11:36:20.836Z,5.43
2023-05-09T11:39:06.277Z,5.78
2023-05-09T11:41:44.361Z,3.05
2023-05-09T11:44:18.596Z,3.45
2023-05-09T11:46:51.441Z,3.20
2023-05-09T11:49:24.695Z,1.83
2023-05-09T11:52:02.182Z,3.53
2023-05-09T11:54:38.475Z,5.47
2023-05-09T11:57:11.410Z,3.63
2023-05-09T11:59:45.440Z,5.65
2023-05-09T12:02:18.411Z,4.38
2023-05-09T12:04:51.705Z,5.05
2023-05-09T12:07:26.353Z,4.85
2023-05-09T12:09:59.201Z,4.32
2023-05-09T12:12:35.392Z,3.35
2023-05-09T12:15:10.223Z,3.65
2023-05-09T12:17:44.435Z,2.83
2023-05-09T12:20:17.238Z,4.88
2023-05-09T12:22:55.910Z,3.60
2023-05-09T12:25:28.927Z,7.15
2023-05-09T12:28:01.757Z,3.63
2023-05-09T12:30:34.988Z,1.98
2023-05-09T12:33:10.544Z,2.65
2023-05-09T12:35:47.217Z,2.25
2023-05-09T12:38:23.571Z,2.72
2023-05-09T12:41:03.650Z,3.92
2023-05-09T12:43:39.566Z,2.38
2023-05-09T12:46:12.421Z,2.90
2023-05-09T12:48:45.994Z,2.85
2023-05-09T12:51:20.346Z,3.33
2023-05-09T12:53:54.489Z,4.18
2023-05-09T12:56:27.286Z,2.40
2023-05-09T12:59:00.103Z,3.00
2023-05-09T13:01:33.235Z,2.10
2023-05-09T13:04:08.538Z,2.95
2023-05-09T13:06:49.381Z,2.30
2023-05-09T13:09:24.432Z,2.80
2023-05-09T13:11:57.221Z,3.60
2023-05-09T13:14:30.507Z,3.15
2023-05-09T13:17:03.346Z,4.63
2023-05-09T13:19:39.496Z,2.58
2023-05-09T13:22:12.560Z,2.83
2023-05-09T13:24:46.972Z,4.05
2023-05-09T13:27:19.721Z,2.85
2023-05-09T13:29:52.657Z,3.72
2023-05-09T13:32:26.154Z,3.75
2023-05-09T13:34:59.069Z,4.28
2023-05-09T13:37:32.238Z,4.90
2023-05-09T13:40:07.984Z,2.38
2023-05-09T13:42:40.937Z,2.53
2023-05-09T13:45:14.001Z,4.63
2023-05-09T13:47:47.070Z,2.95
2023-05-09T13:50:19.985Z,2.83
2023-05-09T13:52:52.874Z,3.00
2023-05-09T13:55:27.809Z,3.72
2023-05-09T13:58:00.751Z,3.55
2023-05-09T14:00:34.322Z,3.17
2023-05-09T14:03:07.506Z,2.95
2023-05-09T14:05:40.483Z,2.92
2023-05-09T14:08:13.774Z,4.55
2023-05-09T14:10:48.166Z,3.00
2023-05-09T14:13:21.237Z,2.35
2023-05-09T14:15:54.097Z,2.58
2023-05-09T14:18:26.895Z,3.28
2023-05-09T14:20:59.747Z,2.58
2023-05-09T14:23:32.510Z,1.88
2023-05-09T14:26:06.884Z,3.55
2023-05-09T14:28:40.085Z,2.78
2023-05-09T14:31:13.411Z,2.92
2023-05-09T14:33:46.580Z,2.55
2023-05-09T14:36:19.423Z,2.72
2023-05-09T14:38:52.195Z,4.40
2023-05-09T14:41:26.862Z,3.35
2023-05-09T14:43:59.706Z,3.25
2023-05-09T14:46:32.684Z,3.05
2023-05-09T14:49:05.570Z,13.70
2023-05-09T14:51:38.439Z,2.03
2023-05-09T14:54:11.320Z,3.63
2023-05-09T14:56:45.442Z,3.67
2023-05-09T14:59:18.470Z,4.03
2023-05-09T15:01:52.329Z,4.32
2023-05-09T15:04:28.276Z,3.97
2023-05-09T15:07:01.171Z,2.80
2023-05-09T15:09:33.950Z,2.25
2023-05-09T15:12:08.394Z,2.95
2023-05-09T15:14:41.570Z,2.65
2023-05-09T15:17:14.495Z,2.30
2023-05-09T15:19:47.419Z,5.22
2023-05-09T15:22:20.174Z,2.58
2023-05-09T15:24:52.861Z,3.83
2023-05-09T15:27:27.686Z,3.38
2023-05-09T15:30:00.726Z,4.65
2023-05-09T15:32:34.638Z,1.98
2023-05-09T15:35:08.378Z,4.07
2023-05-09T15:37:41.712Z,5.05
2023-05-09T15:40:14.957Z,3.00
2023-05-09T15:42:50.950Z,7.50
2023-05-09T15:45:24.085Z,1.90
2023-05-09T15:47:57.077Z,2.97
2023-05-09T15:50:29.908Z,2.78
2023-05-09T15:53:02.702Z,2.75
2023-05-09T15:55:35.676Z,3.88
2023-05-09T15:58:11.008Z,2.97
2023-05-09T16:00:45.428Z,5.50
2023-05-09T16:03:18.928Z,2.13
2023-05-09T16:05:52.143Z,5.78
2023-05-09T16:08:25.113Z,20.23
2023-05-09T16:11:00.852Z,4.70
2023-05-09T16:13:36.060Z,11.70
2023-05-09T16:16:10.137Z,12.90
2023-05-09T16:18:43.065Z,4.82
2023-05-09T16:21:15.934Z,7.07
2023-05-09T16:23:48.728Z,3.65
2023-05-09T16:26:22.032Z,2.95
2023-05-09T16:28:56.292Z,5.82
2023-05-09T16:31:32.196Z,2.20
2023-05-09T16:34:06.326Z,2.00
2023-05-09T16:36:39.495Z,2.20
2023-05-09T16:39:12.341Z,1.98
2023-05-09T16:41:45.425Z,2.83
2023-05-09T16:44:19.652Z,6.72
2023-05-09T16:46:52.416Z,3.63
2023-05-09T16:49:25.230Z,3.38
2023-05-09T16:51:58.279Z,3.22
2023-05-09T16:54:31.628Z,3.53
2023-05-09T16:57:04.601Z,2.35
2023-05-09T16:59:38.766Z,2.92
2023-05-09T17:02:11.528Z,3.88
2023-05-09T17:04:44.353Z,2.17
2023-05-09T17:07:17.625Z,3.90
2023-05-09T17:09:50.501Z,2.65
2023-05-09T17:12:23.495Z,3.80
2023-05-09T17:14:57.918Z,5.85
2023-05-09T17:17:31.282Z,4.10
2023-05-09T17:20:10.001Z,2.70
2023-05-09T17:22:42.926Z,5.60
2023-05-09T17:25:16.727Z,4.28
2023-05-09T17:27:49.897Z,5.45
2023-05-09T17:30:24.457Z,2.65
2023-05-09T17:32:57.407Z,4.28
2023-05-09T17:35:30.429Z,5.22
2023-05-09T17:38:03.210Z,5.30
2023-05-09T17:40:36.053Z,3.97
2023-05-09T17:43:08.910Z,5.40
2023-05-09T17:45:43.408Z,5.47
2023-05-09T17:48:16.299Z,3.30
2023-05-09T17:50:49.360Z,2.60
2023-05-09T17:53:22.198Z,4.75
2023-05-09T17:55:55.392Z,4.50
2023-05-09T17:58:28.694Z,4.05
2023-05-09T18:01:02.836Z,3.20
2023-05-09T18:03:36.004Z,4.53
2023-05-09T18:06:08.878Z,3.92
2023-05-09T18:08:41.766Z,4.38
2023-05-09T18:11:15.031Z,8.30
2023-05-09T18:13:48.273Z,7.18
2023-05-09T18:16:22.518Z,5.32
2023-05-09T18:18:55.332Z,8.57
2023-05-09T18:21:28.858Z,3.90
2023-05-09T18:24:02.008Z,3.92
2023-05-09T18:26:34.973Z,3.55
2023-05-09T18:29:07.937Z,5.25
2023-05-09T18:31:42.204Z,4.05
2023-05-09T18:34:15.118Z,5.15
2023-05-09T18:36:48.721Z,3.33
2023-05-09T18:39:21.597Z,4.00
2023-05-09T18:41:54.402Z,7.18
2023-05-09T18:44:27.495Z,3.22
2023-05-09T18:47:01.948Z,4.47
2023-05-09T18:49:34.807Z,5.72
2023-05-09T18:52:07.628Z,5.07
2023-05-09T18:54:41.365Z,5.72
2023-05-09T18:57:14.506Z,4.20
2023-05-09T18:59:47.358Z,4.85
2023-05-09T19:02:22.470Z,3.50
2023-05-09T19:04:55.597Z,6.10
2023-05-09T19:07:29.341Z,3.80
2023-05-09T19:10:04.038Z,4.55
2023-05-09T19:12:37.601Z,5.20
2023-05-09T19:15:12.396Z,4.40
2023-05-09T19:17:46.834Z,5.70
2023-05-09T19:20:19.939Z,6.05
2023-05-09T19:22:52.779Z,11.07
2023-05-09T19:25:26.081Z,5.40
2023-05-09T19:27:58.958Z,4.68
2023-05-09T19:30:31.975Z,4.40
2023-05-09T19:33:06.245Z,4.50
2023-05-09T19:35:39.424Z,5.20
2023-05-09T19:38:12.996Z,7.05
2023-05-09T19:40:45.824Z,4.57
2023-05-09T19:43:18.785Z,4.43
2023-05-09T19:45:51.574Z,3.58
2023-05-09T19:48:25.842Z,6.00
2023-05-09T19:50:59.199Z,3.80
2023-05-09T19:53:32.220Z,3.20
2023-05-09T19:56:07.955Z,4.28
2023-05-09T19:58:41.214Z,8.43
2023-05-09T20:01:14.258Z,5.22
2023-05-09T20:03:50.693Z,4.95
2023-05-09T20:06:25.325Z,4.25
2023-05-09T20:08:58.206Z,4.68
2023-05-09T20:11:31.268Z,3.05
2023-05-09T20:14:04.596Z,4.90
2023-05-09T20:16:37.456Z,2.63
2023-05-09T20:19:15.238Z,2.75
2023-05-09T20:21:48.120Z,6.00
2023-05-09T20:24:21.155Z,2.58
2023-05-09T20:26:55.044Z,4.85
2023-05-09T20:29:27.858Z,3.63
2023-05-09T20:32:00.810Z,3.50
2023-05-09T20:34:35.107Z,7.43
2023-05-09T20:37:08.008Z,6.47
2023-05-09T20:39:40.928Z,6.68
2023-05-09T20:42:13.815Z,7.70
2023-05-09T20:44:48.333Z,8.50
2023-05-09T20:47:21.299Z,8.15
2023-05-09T20:49:56.834Z,8.20
2023-05-09T20:52:31.076Z,7.97
2023-05-09T20:55:04.122Z,10.40
2023-05-09T20:57:37.001Z,7.93
2023-05-09T21:00:10.528Z,8.10
2023-05-09T21:02:43.433Z,6.63
2023-05-09T21:05:17.887Z,6.85
2023-05-09T21:07:50.756Z,6.13
2023-05-09T21:10:23.685Z,5.43
2023-05-09T21:12:56.520Z,5.43
2023-05-09T21:15:29.368Z,6.90
2023-05-09T21:18:02.290Z,7.60
2023-05-09T21:20:36.568Z,6.68
2023-05-09T21:23:09.528Z,5.20
2023-05-09T21:25:43.056Z,3.97
2023-05-09T21:28:15.881Z,4.65
2023-05-09T21:30:52.387Z,5.93
2023-05-09T21:33:25.923Z,4.05
2023-05-09T21:36:00.378Z,6.95
2023-05-09T21:38:33.759Z,4.88
2023-05-09T21:41:06.858Z,5.97
2023-05-09T21:43:43.198Z,6.50
2023-05-09T21:46:16.426Z,7.60
2023-05-09T21:48:49.581Z,6.35
2023-05-09T21:51:24.094Z,7.00
2023-05-09T21:53:57.085Z,6.53
2023-05-09T21:56:30.277Z,7.45
2023-05-09T21:59:03.316Z,6.25
2023-05-09T22:01:37.018Z,7.97
2023-05-09T22:04:10.170Z,7.85
2023-05-09T22:06:45.077Z,10.35
2023-05-09T22:09:18.076Z,9.98
2023-05-09T22:11:51.960Z,9.13
2023-05-09T22:14:25.223Z,8.88
2023-05-09T22:16:59.454Z,9.73
2023-05-09T22:19:33.166Z,8.88
2023-05-09T22:22:07.806Z,8.75
2023-05-09T22:24:41.799Z,8.93
2023-05-09T22:27:14.779Z,9.48
2023-05-09T22:29:47.844Z,8.45
2023-05-09T22:32:20.846Z,9.52
2023-05-09T22:34:55.135Z,10.13
2023-05-09T22:37:29.557Z,10.65
2023-05-09T22:40:02.569Z,9.55
2023-05-09T22:42:35.539Z,9.25
2023-05-09T22:45:09.609Z,11.85
2023-05-09T22:47:42.517Z,12.93
2023-05-09T22:50:15.831Z,22.42
2023-05-09T22:52:50.427Z,14.63
2023-05-09T22:55:24.178Z,1.65
2023-05-09T22:57:57.415Z,0.85
2023-05-09T23:00:30.338Z,0.55
2023-05-09T23:03:04.615Z,0.00
2023-05-09T23:05:37.654Z,0.60
2023-05-09T23:08:11.881Z,0.00
2023-05-09T23:10:45.110Z,0.00
2023-05-09T23:13:18.254Z,0.65
2023-05-09T23:15:52.126Z,0.00
2023-05-09T23:18:25.799Z,0.00
2023-05-09T23:20:58.767Z,0.00
2023-05-09T23:23:33.105Z,0.00
2023-05-09T23:26:06.018Z,0.00
2023-05-09T23:28:38.819Z,0.00
2023-05-09T23:31:11.795Z,0.43
2023-05-09T23:33:45.140Z,0.00
2023-05-09T23:36:17.933Z,0.10
2023-05-09T23:38:52.326Z,0.05
2023-05-09T23:41:25.151Z,0.00
2023-05-09T23:43:59.407Z,0.00
2023-05-09T23:46:32.326Z,0.00
2023-05-09T23:49:05.221Z,0.00
2023-05-09T23:51:38.054Z,0.00
2023-05-09T23:54:12.239Z,0.00
2023-05-09T23:56:45.111Z,0.00
2023-05-09T23:59:17.934Z,0.00
